Time;durP1;ratioP1;P1;durP2;ratioP2;P2;SDS_P1;SDS_P2;PMS_P1;PMS_P2;Temp;Humidity;BMP_temperature;BMP_pressure;BME280_temperature;BME280_humidity;BME280_pressure;Samples;Min_cycle;Max_cycle;Signal;HPM_P1;HPM_P2
2023/03/22 00:00:38;;;;;;;;;;;;;;;;;;;;;
2023/03/22 00:50:56;;;;;;;60.13;39.70;;;9.00;99.90;;;;;;5807259;24;20525;-85
2023/03/22 00:54:22;;;;;;;;;;;;;;;;;;;;;
2023/03/22 00:57:19;;;;;;;47.55;34.75;;;9.20;99.90;;;;;;6044949;23;20448;-84
2023/03/22 01:00:05;;;;;;;;;;;;;;;;;;;;;
2023/03/22 01:03:03;;;;;;;52.22;36.88;;;9.20;99.90;;;;;;6240879;23;20463;-83
2023/03/22 01:05:39;;;;;;;54.20;36.53;;;9.10;99.90;;;;;;6242562;23;20356;-84
2023/03/22 01:08:23;;;;;;;;;;;;;;;;;;;;;
2023/03/22 01:11:08;;;;;;;39.75;31.15;;;9.00;99.90;;;;;;6243634;23;20464;-84
2023/03/22 01:14:18;;;;;;;;;;;;;;;;;;;;;
2023/03/22 01:17:00;;;;;;;;;;;;;;;;;;;;;
2023/03/22 01:19:39;;;;;;;;;;;;;;;;;;;;;
2023/03/22 01:22:15;;;;;;;51.45;34.22;;;8.40;99.90;;;;;;6240775;22;20435;-84
2023/03/22 01:24:46;;;;;;;41.07;30.57;;;8.30;99.90;;;;;;6217031;23;20855;-85
2023/03/22 01:27:30;;;;;;;57.60;35.20;;;8.20;99.90;;;;;;6241913;23;20352;-84
2023/03/22 01:29:59;;;;;;;40.72;32.45;;;8.10;99.90;;;;;;6216584;23;20359;-84
2023/03/22 01:32:33;;;;;;;50.55;35.03;;;8.10;99.90;;;;;;6216208;23;20362;-84
2023/03/22 01:35:09;;;;;;;44.17;32.17;;;8.10;99.90;;;;;;6217104;23;20802;-84
2023/03/22 01:37:45;;;;;;;43.67;32.65;;;8.00;99.90;;;;;;6216854;23;20367;-84
2023/03/22 01:40:17;;;;;;;40.35;31.80;;;8.10;99.90;;;;;;6215912;23;20348;-84
2023/03/22 01:42:46;;;;;;;50.83;34.95;;;8.20;99.90;;;;;;6216985;23;20376;-84
2023/03/22 01:45:35;;;;;;;52.38;37.83;;;8.10;99.90;;;;;;6243229;23;20337;-84
2023/03/22 01:48:24;;;;;;;52.13;37.40;;;8.10;99.90;;;;;;6215488;23;20450;-85
2023/03/22 01:51:39;;;;;;;53.20;38.13;;;8.10;99.90;;;;;;6243778;23;20785;-84
2023/03/22 01:54:14;;;;;;;66.13;42.30;;;8.10;99.90;;;;;;6189624;22;20369;-85
2023/03/22 02:01:10;;;;;;;76.05;47.17;;;8.10;99.90;;;;;;6221447;23;20810;-85
2023/03/22 02:18:32;;;;;;;;;;;;;;;;;;;;;
2023/03/22 02:21:40;;;;;;;78.18;46.70;;;8.80;99.90;;;;;;6242956;23;20427;-84
2023/03/22 02:25:15;;;;;;;;;;;;;;;;;;;;;
2023/03/22 02:45:51;;;;;;;76.67;48.27;;;8.30;99.90;;;;;;6194594;23;20363;-85
2023/03/22 02:49:02;;;;;;;84.15;51.33;;;8.40;99.90;;;;;;6095639;23;20371;-84
2023/03/22 02:52:29;;;;;;;85.80;49.10;;;8.40;99.90;;;;;;6097996;23;20703;-85
2023/03/22 02:55:49;;;;;;;;;;;;;;;;;;;;;
2023/03/22 02:58:38;;;;;;;71.78;46.08;;;8.50;99.90;;;;;;6149260;23;20480;-85
2023/03/22 03:01:30;;;;;;;;;;;;;;;;;;;;;
2023/03/22 03:04:12;;;;;;;80.25;48.40;;;8.40;99.90;;;;;;6238873;23;20356;-83
2023/03/22 03:06:48;;;;;;;72.63;46.97;;;8.40;99.90;;;;;;6204876;23;20362;-84
2023/03/22 03:09:27;;;;;;;78.07;47.77;;;8.40;99.90;;;;;;6190234;23;20436;-84
2023/03/22 03:12:55;;;;;;;;;;;;;;;;;;;;;
2023/03/22 03:20:20;;;;;;;76.43;47.03;;;8.40;99.90;;;;;;5987887;23;20420;-84
2023/03/22 03:22:47;;;;;;;74.28;47.08;;;8.40;99.90;;;;;;6140135;23;20404;-84
2023/03/22 03:25:43;;;;;;;86.68;50.35;;;8.40;99.90;;;;;;6186233;23;20716;-84
2023/03/22 03:28:16;;;;;;;69.57;47.17;;;8.50;99.90;;;;;;6186576;23;20357;-84
2023/03/22 03:31:09;;;;;;;;;;;;;;;;;;;;;
2023/03/22 03:45:09;;;;;;;;;;;;;;;;;;;;;
2023/03/22 03:59:38;;;;;;;;;;;;;;;;;;;;;
2023/03/22 04:02:10;;;;;;;55.20;38.90;;;8.70;99.90;;;;;;6116083;23;20493;-84
2023/03/22 04:04:37;;;;;;;59.03;41.58;;;8.80;99.90;;;;;;6212819;23;20368;-85
2023/03/22 04:07:04;;;;;;;56.97;39.85;;;8.60;99.90;;;;;;6189587;23;20350;-84
2023/03/22 04:09:36;;;;;;;52.58;38.65;;;8.60;99.90;;;;;;6211485;23;20374;-84
2023/03/22 04:12:02;;;;;;;57.15;38.53;;;8.70;99.90;;;;;;6216166;23;21165;-84
2023/03/22 04:14:28;;;;;;;53.00;38.38;;;8.60;99.90;;;;;;6216028;23;20342;-86
2023/03/22 04:16:54;;;;;;;57.42;39.20;;;8.60;99.90;;;;;;6216093;23;20375;-85
2023/03/22 04:19:21;;;;;;;57.00;38.67;;;8.50;99.90;;;;;;6218742;23;20358;-85
2023/03/22 04:21:47;;;;;;;59.42;40.42;;;8.40;99.90;;;;;;6219145;23;20350;-84
2023/03/22 04:24:14;;;;;;;56.17;38.77;;;8.40;99.90;;;;;;6192021;23;20366;-84
2023/03/22 04:26:40;;;;;;;58.90;40.05;;;8.40;99.90;;;;;;6216744;23;20374;-84
2023/03/22 04:29:06;;;;;;;53.30;38.22;;;8.50;99.90;;;;;;6217207;23;20354;-85
2023/03/22 04:31:34;;;;;;;52.15;37.33;;;8.50;99.90;;;;;;6190587;23;21017;-85
2023/03/22 04:34:04;;;;;;;55.03;38.03;;;8.50;99.90;;;;;;6191643;23;20459;-85
2023/03/22 04:36:38;;;;;;;53.85;38.13;;;8.40;99.90;;;;;;6190588;23;20366;-85
2023/03/22 04:39:11;;;;;;;49.55;36.35;;;8.40;99.90;;;;;;6190246;23;20374;-85
2023/03/22 04:45:23;;;;;;;46.58;35.22;;;8.50;99.90;;;;;;6118497;23;20358;-83
2023/03/22 04:48:27;;;;;;;;;;;;;;;;;;;;;
2023/03/22 04:54:49;;;;;;;49.53;36.08;;;8.50;99.90;;;;;;6032432;23;20354;-85
2023/03/22 04:57:38;;;;;;;50.33;34.55;;;8.40;99.90;;;;;;6210905;23;20374;-83
2023/03/22 05:01:01;;;;;;;;;;;;;;;;;;;;;
2023/03/22 05:04:17;;;;;;;;;;;;;;;;;;;;;
2023/03/22 05:31:51;;;;;;;49.20;35.30;;;8.40;99.90;;;;;;5975164;23;20698;-84
2023/03/22 05:44:54;;;;;;;52.72;36.97;;;8.50;99.90;;;;;;6007246;23;20345;-84
2023/03/22 05:47:22;;;;;;;51.75;36.80;;;8.30;99.90;;;;;;6028898;23;20484;-83
2023/03/22 05:49:48;;;;;;;52.55;36.63;;;8.30;99.90;;;;;;6174681;23;20352;-83
2023/03/22 05:52:19;;;;;;;46.65;34.17;;;8.40;99.90;;;;;;6246210;23;20354;-84
2023/03/22 05:55:26;;;;;;;;;;;;;;;;;;;;;
2023/03/22 05:57:55;;;;;;;47.40;34.38;;;8.40;99.90;;;;;;6238308;23;20403;-85
2023/03/22 06:00:30;;;;;;;41.70;32.72;;;8.50;99.90;;;;;;6216992;23;20378;-85
2023/03/22 06:03:04;;;;;;;39.70;31.63;;;8.50;99.90;;;;;;6221838;23;20348;-86
2023/03/22 06:05:36;;;;;;;38.20;29.83;;;8.60;99.90;;;;;;6248578;23;20340;-85
2023/03/22 06:08:06;;;;;;;43.43;31.17;;;8.70;99.90;;;;;;6247569;23;20459;-87
2023/03/22 06:10:37;;;;;;;42.13;32.65;;;8.60;99.90;;;;;;6221931;23;20348;-86
2023/03/22 06:13:03;;;;;;;41.15;31.77;;;8.60;99.90;;;;;;6221880;23;20855;-86
2023/03/22 06:16:01;;;;;;;;;;;;;;;;;;;;;
2023/03/22 06:19:22;;;;;;;44.80;32.60;;;8.60;99.90;;;;;;6240837;23;20388;-86
2023/03/22 06:25:13;;;;;;;;;;;;;;;;;;;;;
2023/03/22 06:28:28;;;;;;;;;;;;;;;;;;;;;
2023/03/22 06:31:12;;;;;;;35.17;29.02;;;8.90;99.90;;;;;;6245187;23;20531;-86
2023/03/22 06:33:41;;;;;;;37.97;30.20;;;8.90;99.90;;;;;;6223094;23;20352;-87
2023/03/22 06:36:09;;;;;;;36.00;29.13;;;8.80;99.90;;;;;;6222525;23;20830;-87
2023/03/22 06:38:38;;;;;;;35.67;29.25;;;8.80;99.90;;;;;;6248821;23;20446;-87
2023/03/22 06:41:05;;;;;;;38.97;28.50;;;8.80;99.90;;;;;;6197278;23;20392;-87
2023/03/22 06:43:31;;;;;;;36.10;28.50;;;8.90;99.90;;;;;;6248226;23;20344;-88
2023/03/22 06:46:02;;;;;;;30.60;25.77;;;9.00;99.90;;;;;;6221507;23;20363;-86
2023/03/22 06:48:28;;;;;;;31.13;26.23;;;9.20;99.90;;;;;;6248010;23;20364;-84
2023/03/22 06:50:53;;;;;;;32.28;26.92;;;9.30;99.90;;;;;;6221970;23;20351;-86
2023/03/22 06:53:29;;;;;;;;;;;;;;;;;;;;;
2023/03/22 07:02:36;;;;;;;30.52;25.30;;;9.50;99.90;;;;;;6218148;23;20372;-86
2023/03/22 07:08:43;;;;;;;29.63;24.77;;;9.70;99.90;;;;;;6213680;23;20955;-88
2023/03/22 07:12:17;;;;;;;;;;;;;;;;;;;;;
2023/03/22 07:15:13;;;;;;;25.00;21.88;;;9.70;99.90;;;;;;6244115;23;20353;-85
2023/03/22 07:17:57;;;;;;;26.00;21.25;;;10.10;99.90;;;;;;6246090;23;20455;-87
2023/03/22 07:20:26;;;;;;;24.83;21.20;;;10.00;99.90;;;;;;6219407;23;20337;-87
2023/03/22 07:22:54;;;;;;;24.02;20.98;;;10.10;99.90;;;;;;6219661;23;20411;-85
2023/03/22 07:25:25;;;;;;;24.63;20.93;;;10.20;99.90;;;;;;6219109;23;20863;-87
2023/03/22 07:28:01;;;;;;;24.00;20.77;;;10.20;99.90;;;;;;6218341;23;20371;-87
2023/03/22 07:30:29;;;;;;;24.80;20.52;;;10.20;99.90;;;;;;6219970;23;20356;-86
2023/03/22 07:33:01;;;;;;;23.85;18.65;;;10.40;99.90;;;;;;6218532;23;20407;-86
2023/03/22 07:35:27;;;;;;;20.17;17.48;;;10.80;99.90;;;;;;6218736;23;20391;-87
2023/03/22 07:38:06;;;;;;;20.58;18.38;;;11.00;99.90;;;;;;6220762;23;20671;-87
2023/03/22 07:40:38;;;;;;;20.27;17.52;;;11.00;99.90;;;;;;6247846;23;20427;-88
2023/03/22 07:43:21;;;;;;;19.92;17.48;;;11.00;99.90;;;;;;6219916;23;20664;-87
2023/03/22 07:46:16;;;;;;;20.58;17.33;;;11.10;99.90;;;;;;6219571;23;20383;-86
2023/03/22 07:48:49;;;;;;;20.65;17.10;;;11.00;99.90;;;;;;6219806;23;20348;-86
2023/03/22 07:51:15;;;;;;;20.23;16.43;;;11.30;99.90;;;;;;6223184;23;20443;-85
2023/03/22 07:53:41;;;;;;;17.87;15.77;;;11.50;99.90;;;;;;6219940;23;20353;-84
2023/03/22 07:56:07;;;;;;;20.90;17.60;;;11.60;99.90;;;;;;6245337;23;20343;-85
2023/03/22 07:58:35;;;;;;;19.53;15.97;;;11.40;99.90;;;;;;6217531;23;20360;-85
2023/03/22 08:01:07;;;;;;;21.20;17.88;;;11.30;99.90;;;;;;6244681;23;20379;-85
2023/03/22 08:03:35;;;;;;;20.27;17.57;;;11.20;99.90;;;;;;6245558;23;20781;-85
2023/03/22 08:06:06;;;;;;;20.27;17.10;;;11.00;99.90;;;;;;6245548;23;20428;-85
2023/03/22 08:08:36;;;;;;;22.70;17.67;;;11.20;99.90;;;;;;6246165;23;20691;-84
2023/03/22 08:11:06;;;;;;;19.95;16.30;;;11.50;99.90;;;;;;6219692;23;20356;-85
2023/03/22 08:13:32;;;;;;;19.10;16.40;;;11.60;99.90;;;;;;6245852;23;20452;-84
2023/03/22 08:15:58;;;;;;;20.42;16.25;;;11.70;99.90;;;;;;6246034;23;20398;-84
2023/03/22 08:18:24;;;;;;;21.08;16.70;;;11.80;99.90;;;;;;6246212;23;20364;-86
2023/03/22 08:20:58;;;;;;;18.33;16.42;;;11.80;99.90;;;;;;6219204;23;20368;-88
2023/03/22 08:23:27;;;;;;;19.80;17.27;;;11.90;99.90;;;;;;6219145;23;20344;-87
2023/03/22 08:25:53;;;;;;;20.08;17.83;;;11.50;99.90;;;;;;6217436;23;20352;-87
2023/03/22 08:28:19;;;;;;;18.48;16.40;;;11.50;99.90;;;;;;6226430;22;20348;-86
2023/03/22 08:30:46;;;;;;;19.58;17.48;;;11.60;99.90;;;;;;6269356;23;20348;-86
2023/03/22 08:33:13;;;;;;;22.42;18.20;;;11.50;99.90;;;;;;6233953;23;20359;-87
2023/03/22 08:35:43;;;;;;;21.93;17.47;;;11.50;99.90;;;;;;6247137;23;20407;-87
2023/03/22 08:38:10;;;;;;;18.77;16.25;;;11.50;99.90;;;;;;6218821;23;20390;-87
2023/03/22 08:40:36;;;;;;;21.05;17.30;;;11.70;99.90;;;;;;6218169;23;20653;-86
2023/03/22 08:43:03;;;;;;;19.80;16.60;;;11.70;99.90;;;;;;6244841;23;20398;-86
2023/03/22 08:45:29;;;;;;;20.05;16.02;;;11.90;99.90;;;;;;6245287;23;20436;-86
2023/03/22 08:47:56;;;;;;;18.85;14.90;;;12.00;99.90;;;;;;6217973;23;20395;-86
2023/03/22 08:50:22;;;;;;;17.73;15.00;;;12.10;99.90;;;;;;6244503;23;20406;-86
2023/03/22 08:52:48;;;;;;;16.10;14.27;;;12.40;99.90;;;;;;6218672;23;20422;-86
2023/03/22 08:55:23;;;;;;;16.52;14.48;;;12.40;99.90;;;;;;6217503;23;20348;-88
2023/03/22 08:57:52;;;;;;;17.27;14.70;;;12.60;99.90;;;;;;6218280;23;20446;-88
2023/03/22 09:00:29;;;;;;;17.55;14.65;;;12.50;99.90;;;;;;6221890;23;20368;-86
2023/03/22 09:02:55;;;;;;;16.55;14.75;;;12.70;99.90;;;;;;6222020;23;20403;-86
2023/03/22 09:05:23;;;;;;;16.75;14.73;;;12.90;99.90;;;;;;6218753;23;20352;-87
2023/03/22 09:07:55;;;;;;;15.88;13.80;;;12.90;99.90;;;;;;6215730;23;20340;-87
2023/03/22 09:10:50;;;;;;;17.17;13.32;;;13.00;99.90;;;;;;6244243;23;20359;-86
2023/03/22 09:14:26;;;;;;;18.10;14.23;;;13.20;99.90;;;;;;6241283;23;20672;-87
2023/03/22 09:16:53;;;;;;;15.13;13.02;;;13.20;99.90;;;;;;6212502;23;20370;-85
2023/03/22 09:19:21;;;;;;;16.08;13.20;;;13.50;99.90;;;;;;6216934;23;20380;-86
2023/03/22 09:21:47;;;;;;;14.75;12.77;;;13.60;99.90;;;;;;6243083;23;20380;-86
2023/03/22 09:24:12;;;;;;;16.00;13.70;;;13.70;99.90;;;;;;6241763;23;20366;-74
2023/03/22 09:26:38;;;;;;;14.20;11.93;;;13.80;99.90;;;;;;6240092;23;20375;-75
2023/03/22 09:29:04;;;;;;;16.73;12.30;;;13.90;99.90;;;;;;6241739;23;20383;-75
2023/03/22 09:31:30;;;;;;;14.30;12.23;;;14.20;99.90;;;;;;6240617;23;20466;-75
2023/03/22 09:33:55;;;;;;;14.48;12.10;;;14.30;99.90;;;;;;6240327;23;20823;-77
2023/03/22 09:36:21;;;;;;;14.85;12.25;;;14.00;99.90;;;;;;6238440;23;20355;-76
2023/03/22 09:38:48;;;;;;;14.33;11.20;;;14.10;99.90;;;;;;6241400;23;20842;-77
2023/03/22 09:41:48;;;;;;;12.88;10.60;;;14.60;99.90;;;;;;6240527;23;20352;-74
2023/03/22 09:44:37;;;;;;;13.98;11.13;;;15.10;99.90;;;;;;6241510;23;20422;-75
2023/03/22 09:47:12;;;;;;;16.20;11.60;;;14.90;99.90;;;;;;6241733;23;20386;-76
2023/03/22 09:49:42;;;;;;;15.93;11.32;;;14.90;99.90;;;;;;6241835;23;20344;-74
2023/03/22 09:52:16;;;;;;;14.70;11.25;;;14.90;99.90;;;;;;6241947;23;20430;-74
2023/03/22 09:54:44;;;;;;;13.80;10.63;;;15.10;99.90;;;;;;6241556;23;20344;-74
2023/03/22 09:57:28;;;;;;;15.30;11.13;;;15.30;99.90;;;;;;6240403;23;20374;-75
2023/03/22 10:00:17;;;;;;;13.43;10.43;;;15.20;99.90;;;;;;6241059;23;20367;-76
2023/03/22 10:03:05;;;;;;;14.18;9.73;;;15.80;99.90;;;;;;6241877;23;20340;-75
2023/03/22 10:06:01;;;;;;;12.07;9.57;;;16.10;99.90;;;;;;6241561;23;20344;-75
2023/03/22 10:08:34;;;;;;;13.27;9.80;;;16.30;99.90;;;;;;6236349;23;20444;-75
2023/03/22 10:11:00;;;;;;;11.90;8.80;;;16.00;99.90;;;;;;6241772;23;20336;-75
2023/03/22 10:13:35;;;;;;;10.47;8.67;;;16.10;99.90;;;;;;6241531;23;21031;-76
2023/03/22 10:16:11;;;;;;;10.30;8.48;;;16.50;99.90;;;;;;6241981;23;20429;-75
2023/03/22 10:18:50;;;;;;;9.98;8.35;;;16.80;99.90;;;;;;6241889;23;20422;-75
2023/03/22 10:21:18;;;;;;;11.75;8.50;;;17.40;99.90;;;;;;6242125;23;20803;-74
2023/03/22 10:23:55;;;;;;;11.95;9.07;;;17.40;99.90;;;;;;6242298;23;20380;-74
2023/03/22 10:26:28;;;;;;;11.68;8.50;;;16.60;99.90;;;;;;6241361;23;20432;-74
2023/03/22 10:29:11;;;;;;;12.40;9.68;;;16.70;99.90;;;;;;6215218;23;20364;-75
2023/03/22 10:31:41;;;;;;;11.68;10.15;;;16.00;99.90;;;;;;6215007;23;20348;-75
2023/03/22 10:34:32;;;;;;;14.33;10.90;;;15.40;99.90;;;;;;6242160;23;20336;-74
2023/03/22 10:37:03;;;;;;;11.75;9.60;;;15.20;99.90;;;;;;6213724;23;20439;-74
2023/03/22 10:39:35;;;;;;;11.80;9.23;;;15.30;99.90;;;;;;6215373;23;20422;-74
2023/03/22 10:42:06;;;;;;;10.27;8.53;;;15.70;99.90;;;;;;6237107;23;20341;-75
2023/03/22 10:44:39;;;;;;;12.40;8.52;;;16.00;99.90;;;;;;6242145;23;20355;-74
2023/03/22 10:47:07;;;;;;;12.27;8.73;;;16.10;99.90;;;;;;6240864;23;20897;-74
2023/03/22 10:49:51;;;;;;;10.00;8.02;;;15.80;99.90;;;;;;6217140;23;20923;-82
2023/03/22 10:52:29;;;;;;;12.32;8.55;;;15.60;99.90;;;;;;6216121;23;20754;-84
2023/03/22 10:58:31;;;;;;;;;;;;;;;;;;;;;
2023/03/22 11:01:45;;;;;;;9.57;7.00;;;16.70;99.90;;;;;;6247362;23;20360;-85
2023/03/22 11:04:21;;;;;;;9.60;7.22;;;16.10;99.90;;;;;;6212094;23;20442;-84
2023/03/22 11:06:55;;;;;;;10.00;7.40;;;15.80;99.90;;;;;;6220203;23;20377;-85
2023/03/22 11:09:24;;;;;;;10.25;6.80;;;15.90;99.90;;;;;;6221814;23;20356;-86
2023/03/22 11:12:01;;;;;;;8.18;6.50;;;15.60;99.90;;;;;;6227329;23;20611;-83
2023/03/22 11:14:32;;;;;;;12.52;6.60;;;15.50;99.90;;;;;;6237029;23;20360;-85
2023/03/22 11:17:07;;;;;;;7.95;6.60;;;15.80;99.90;;;;;;6258050;23;20340;-88
2023/03/22 11:20:15;;;;;;;6.35;5.72;;;16.00;99.90;;;;;;6221352;23;20422;-84
2023/03/22 11:22:51;;;;;;;9.32;6.65;;;15.90;99.90;;;;;;6129166;23;20337;-87
2023/03/22 11:25:25;;;;;;;6.72;5.85;;;16.20;99.90;;;;;;6127465;23;20384;-85
2023/03/22 11:28:40;;;;;;;9.55;6.40;;;16.90;99.90;;;;;;6207472;23;20395;-86
2023/03/22 11:31:13;;;;;;;9.70;6.13;;;17.30;99.90;;;;;;6196904;23;20355;-86
2023/03/22 11:34:18;;;;;;;7.00;5.72;;;17.10;99.90;;;;;;6218617;23;20344;-86
2023/03/22 11:36:55;;;;;;;9.80;5.82;;;17.00;99.90;;;;;;6244900;23;20333;-87
2023/03/22 11:39:28;;;;;;;8.27;5.88;;;17.10;99.90;;;;;;6218560;23;20738;-87
2023/03/22 11:42:05;;;;;;;8.27;5.68;;;17.10;99.90;;;;;;6218277;23;20336;-89
2023/03/22 11:44:37;;;;;;;7.47;5.32;;;17.20;99.90;;;;;;6219181;23;20345;-90
2023/03/22 11:47:07;;;;;;;8.35;5.57;;;17.20;99.90;;;;;;6220133;23;20395;-90
2023/03/22 11:49:57;;;;;;;10.80;5.85;;;17.10;99.90;;;;;;6246086;23;20362;-89
2023/03/22 11:52:38;;;;;;;8.50;5.23;;;16.70;99.90;;;;;;6216733;23;20337;-90
2023/03/22 11:55:37;;;;;;;7.65;5.60;;;16.80;99.90;;;;;;6217189;23;20344;-89
2023/03/22 11:59:05;;;;;;;7.03;5.45;;;16.70;99.90;;;;;;6168982;23;20464;-88
2023/03/22 12:06:03;;;;;;;7.40;4.82;;;17.30;99.90;;;;;;6147493;23;20359;-87
2023/03/22 12:08:47;;;;;;;7.82;5.47;;;17.40;99.90;;;;;;6100507;23;20439;-86
2023/03/22 12:11:40;;;;;;;;;;;;;;;;;;;;;
2023/03/22 12:14:18;;;;;;;6.85;5.25;;;16.90;99.90;;;;;;6125936;23;20453;-87
2023/03/22 12:20:23;;;;;;;6.75;5.13;;;17.00;99.90;;;;;;6249022;23;20411;-87
2023/03/22 12:23:18;;;;;;;8.52;5.47;;;17.20;99.90;;;;;;6130436;23;20345;-89
2023/03/22 12:33:04;;;;;;;;;;;;;;;;;;;;;
2023/03/22 12:35:43;;;;;;;9.20;5.15;;;17.20;99.90;;;;;;6136204;23;20373;-85
2023/03/22 12:39:01;;;;;;;8.80;5.82;;;17.40;99.90;;;;;;6157633;23;20381;-85
2023/03/22 12:42:06;;;;;;;7.93;5.00;;;17.20;99.90;;;;;;6251704;23;20351;-87
2023/03/22 12:44:56;;;;;;;;;;;;;;;;;;;;;
2023/03/22 12:57:50;;;;;;;9.15;4.07;;;17.30;99.90;;;;;;6250852;23;20340;-86
2023/03/22 13:00:32;;;;;;;6.03;4.15;;;17.60;99.90;;;;;;6142727;23;20380;-88
2023/03/22 13:03:25;;;;;;;8.85;4.53;;;16.90;99.90;;;;;;6169945;23;20348;-89
2023/03/22 13:06:25;;;;;;;6.07;4.13;;;17.00;99.90;;;;;;6223690;23;20345;-86
2023/03/22 13:09:11;;;;;;;6.05;4.60;;;17.00;99.90;;;;;;6222540;23;20344;-85
2023/03/22 13:11:42;;;;;;;7.72;4.70;;;16.90;99.90;;;;;;6223310;23;20355;-88
2023/03/22 13:14:38;;;;;;;5.72;4.05;;;16.70;99.90;;;;;;6220968;23;20356;-85
2023/03/22 13:17:06;;;;;;;6.22;3.88;;;16.80;99.90;;;;;;6251830;23;20391;-87
2023/03/22 13:19:36;;;;;;;7.72;4.13;;;17.40;99.90;;;;;;6222826;23;20371;-87
2023/03/22 13:22:19;;;;;;;6.68;4.03;;;17.50;99.90;;;;;;6248823;23;20857;-86
2023/03/22 13:25:21;;;;;;;;;;;;;;;;;;;;;
2023/03/22 13:28:05;;;;;;;8.77;4.93;;;17.30;99.90;;;;;;6248067;23;20390;-86
2023/03/22 13:30:56;;;;;;;9.20;4.17;;;17.30;99.90;;;;;;6221477;23;20414;-86
2023/03/22 13:33:51;;;;;;;6.30;4.53;;;17.40;99.90;;;;;;6218022;23;20441;-87
2023/03/22 13:39:48;;;;;;;7.10;3.85;;;17.00;99.90;;;;;;6189183;23;20355;-87
2023/03/22 13:42:25;;;;;;;7.90;4.15;;;16.80;99.90;;;;;;6218219;23;20372;-86
2023/03/22 13:45:01;;;;;;;7.28;3.60;;;16.80;99.90;;;;;;6218733;23;20354;-86
2023/03/22 13:47:45;;;;;;;6.10;3.90;;;17.00;99.90;;;;;;6245682;23;20347;-86
2023/03/22 13:50:22;;;;;;;8.17;4.00;;;17.30;99.90;;;;;;6246304;23;20771;-83
2023/03/22 13:53:03;;;;;;;5.47;3.63;;;17.30;99.90;;;;;;6246733;23;20368;-84
2023/03/22 13:55:50;;;;;;;5.57;3.75;;;16.90;99.90;;;;;;6257751;23;20335;-83
2023/03/22 13:58:35;;;;;;;7.20;4.17;;;16.90;99.90;;;;;;6265694;23;20407;-84
2023/03/22 14:01:13;;;;;;;7.70;4.57;;;16.90;99.90;;;;;;6224294;23;20380;-85
2023/03/22 14:03:46;;;;;;;6.37;4.53;;;17.20;99.90;;;;;;6217506;23;20383;-82
2023/03/22 14:06:35;;;;;;;7.05;4.43;;;17.60;99.90;;;;;;6244208;23;20345;-85
2023/03/22 14:09:10;;;;;;;7.55;4.30;;;17.50;99.90;;;;;;6243887;23;20402;-86
2023/03/22 14:11:51;;;;;;;8.50;4.70;;;17.40;99.90;;;;;;6218599;23;20352;-85
2023/03/22 14:14:26;;;;;;;8.38;4.28;;;17.40;99.90;;;;;;6244044;23;20340;-85
2023/03/22 14:17:04;;;;;;;6.82;4.32;;;17.20;99.90;;;;;;6245028;23;20336;-84
2023/03/22 14:19:33;;;;;;;5.67;4.40;;;17.30;99.90;;;;;;6217487;23;20379;-85
2023/03/22 14:22:03;;;;;;;5.95;4.03;;;17.40;99.90;;;;;;6243601;23;20490;-85
2023/03/22 14:24:32;;;;;;;4.80;3.83;;;17.50;99.90;;;;;;6244002;23;20470;-87
2023/03/22 14:26:58;;;;;;;6.53;3.88;;;17.30;99.90;;;;;;6216531;23;20357;-85
2023/03/22 14:29:27;;;;;;;6.28;4.15;;;17.30;99.90;;;;;;6216930;23;20374;-84
2023/03/22 14:32:04;;;;;;;6.72;3.95;;;17.10;99.90;;;;;;6216854;23;20367;-84
2023/03/22 14:34:34;;;;;;;5.65;3.75;;;17.40;99.90;;;;;;6243653;23;20424;-85
2023/03/22 14:37:02;;;;;;;9.40;3.77;;;17.30;99.90;;;;;;6216681;23;20356;-86
2023/03/22 14:39:37;;;;;;;6.07;3.85;;;17.20;99.90;;;;;;6244891;23;20360;-85
2023/03/22 14:42:15;;;;;;;;;;;;;;;;;;;;;
2023/03/22 14:44:46;;;;;;;6.35;4.15;;;16.70;99.90;;;;;;6244624;23;20419;-86
2023/03/22 14:47:20;;;;;;;6.47;4.13;;;16.60;99.90;;;;;;6217841;23;20345;-85
2023/03/22 14:49:53;;;;;;;6.63;4.22;;;16.60;99.90;;;;;;6217321;23;20872;-86
2023/03/22 14:52:28;;;;;;;6.25;4.00;;;16.50;99.90;;;;;;6218816;23;20348;-84
2023/03/22 14:54:58;;;;;;;7.20;3.40;;;16.40;99.90;;;;;;6219609;23;20431;-86
2023/03/22 14:57:36;;;;;;;5.32;3.40;;;16.50;99.90;;;;;;6248057;23;20775;-85
2023/03/22 15:00:14;;;;;;;5.32;2.90;;;16.50;99.90;;;;;;6220717;23;20690;-86
2023/03/22 15:02:46;;;;;;;4.47;2.70;;;16.40;99.90;;;;;;6225672;23;20368;-85
2023/03/22 15:05:17;;;;;;;5.68;3.00;;;16.60;99.90;;;;;;6223886;23;20340;-85
2023/03/22 15:07:52;;;;;;;7.07;3.17;;;16.50;99.90;;;;;;6225483;23;20348;-85
2023/03/22 15:10:31;;;;;;;6.20;3.10;;;16.50;99.90;;;;;;6225735;23;20355;-86
2023/03/22 15:12:57;;;;;;;5.10;2.70;;;16.60;99.90;;;;;;6222994;23;20361;-85
2023/03/22 15:15:28;;;;;;;5.90;3.33;;;16.50;99.90;;;;;;6249686;23;20337;-86
2023/03/22 15:17:56;;;;;;;7.43;3.10;;;16.50;99.90;;;;;;6253446;23;20388;-85
2023/03/22 15:20:30;;;;;;;5.22;2.90;;;16.50;99.90;;;;;;6225209;23;20838;-84
2023/03/22 15:23:00;;;;;;;5.57;3.00;;;16.50;99.90;;;;;;6221793;23;20822;-85
2023/03/22 15:25:31;;;;;;;4.10;2.77;;;16.50;99.90;;;;;;6221231;23;20807;-85
2023/03/22 15:27:59;;;;;;;6.53;3.33;;;16.50;99.90;;;;;;6220835;23;20340;-85
2023/03/22 15:30:25;;;;;;;6.22;2.95;;;16.40;99.90;;;;;;6224999;23;20449;-86
2023/03/22 15:32:51;;;;;;;5.73;3.50;;;16.40;99.90;;;;;;6219131;23;20803;-85
2023/03/22 15:35:18;;;;;;;4.57;2.92;;;16.40;99.90;;;;;;6218829;23;20413;-86
2023/03/22 15:37:51;;;;;;;4.40;3.00;;;16.30;99.90;;;;;;6218472;23;20837;-85
2023/03/22 15:40:41;;;;;;;5.45;3.25;;;16.20;99.90;;;;;;6246043;23;20752;-86
2023/03/22 15:43:13;;;;;;;6.10;3.60;;;16.20;99.90;;;;;;6246937;23;20351;-87
2023/03/22 15:46:10;;;;;;;5.28;3.40;;;16.20;99.90;;;;;;6219349;23;20352;-85
2023/03/22 15:48:52;;;;;;;6.38;3.08;;;16.00;99.90;;;;;;6218515;23;20465;-85
2023/03/22 15:51:26;;;;;;;4.57;3.40;;;16.00;99.90;;;;;;6246177;23;20336;-87
2023/03/22 15:53:53;;;;;;;7.03;3.13;;;16.00;99.90;;;;;;6218588;23;20688;-84
2023/03/22 15:56:29;;;;;;;6.27;3.23;;;16.10;99.90;;;;;;6246389;23;20360;-86
2023/03/22 15:58:58;;;;;;;5.65;3.00;;;15.80;99.90;;;;;;6245574;23;20430;-87
2023/03/22 16:01:25;;;;;;;5.50;3.10;;;15.60;99.90;;;;;;6245646;23;20344;-88
2023/03/22 16:03:54;;;;;;;4.43;3.38;;;15.60;99.90;;;;;;6247115;23;20406;-86
2023/03/22 16:06:20;;;;;;;4.55;2.78;;;15.60;99.90;;;;;;6219497;23;20397;-87
2023/03/22 16:08:46;;;;;;;3.80;3.10;;;15.60;99.90;;;;;;6220957;23;20349;-86
2023/03/22 16:11:41;;;;;;;6.20;3.30;;;15.50;99.90;;;;;;6247649;23;20346;-84
2023/03/22 16:14:15;;;;;;;4.63;3.03;;;15.40;99.90;;;;;;6247234;23;20423;-84
2023/03/22 16:16:43;;;;;;;6.03;3.05;;;15.40;99.90;;;;;;6249129;23;20336;-86
2023/03/22 16:19:10;;;;;;;5.25;3.20;;;15.40;99.90;;;;;;6220417;23;20451;-85
2023/03/22 16:22:02;;;;;;;4.55;3.10;;;15.30;99.90;;;;;;6199155;23;20403;-86
2023/03/22 16:24:28;;;;;;;6.72;3.50;;;15.20;99.90;;;;;;6218955;23;20672;-87
2023/03/22 16:26:55;;;;;;;7.10;3.20;;;15.20;99.90;;;;;;6220690;23;20347;-85
2023/03/22 16:29:22;;;;;;;6.75;3.33;;;15.10;99.90;;;;;;6222193;23;20375;-85
2023/03/22 16:31:47;;;;;;;5.82;3.22;;;15.20;99.90;;;;;;6246084;23;20340;-85
2023/03/22 16:34:18;;;;;;;6.38;3.90;;;15.00;99.90;;;;;;6226553;23;20389;-86
2023/03/22 16:36:43;;;;;;;6.30;3.63;;;15.10;99.90;;;;;;6230576;23;20355;-86
2023/03/22 16:39:16;;;;;;;6.07;3.23;;;15.00;99.90;;;;;;6238344;23;20351;-85
2023/03/22 16:41:41;;;;;;;6.10;4.03;;;15.00;99.90;;;;;;6261886;23;20336;-84
2023/03/22 16:44:15;;;;;;;7.23;3.57;;;14.90;99.90;;;;;;6226464;23;20348;-84
2023/03/22 16:46:42;;;;;;;9.20;3.80;;;14.80;99.90;;;;;;6218883;23;20431;-84
2023/03/22 16:49:08;;;;;;;4.93;3.50;;;14.80;99.90;;;;;;6218170;23;20344;-84
2023/03/22 16:51:36;;;;;;;5.80;3.97;;;15.00;99.90;;;;;;6220758;23;20351;-84
2023/03/22 16:54:02;;;;;;;7.50;4.00;;;14.90;99.90;;;;;;6224304;23;20402;-83
2023/03/22 16:56:31;;;;;;;7.60;4.50;;;14.70;99.90;;;;;;6221684;23;20348;-86
2023/03/22 16:58:58;;;;;;;6.95;4.22;;;14.60;99.90;;;;;;6249736;23;20448;-85
2023/03/22 17:01:24;;;;;;;6.38;4.22;;;14.50;99.90;;;;;;6221777;23;20360;-85
2023/03/22 17:03:51;;;;;;;6.57;4.03;;;14.50;99.90;;;;;;6222598;23;20380;-85
2023/03/22 17:06:25;;;;;;;5.93;3.53;;;14.40;99.90;;;;;;6220196;23;20442;-85
2023/03/22 17:08:51;;;;;;;5.68;3.63;;;14.50;99.90;;;;;;6217713;23;20360;-85
2023/03/22 17:11:28;;;;;;;5.30;3.67;;;14.40;99.90;;;;;;6217923;23;20647;-86
2023/03/22 17:13:59;;;;;;;6.22;4.00;;;14.40;99.90;;;;;;6217811;23;20349;-85
2023/03/22 17:16:26;;;;;;;7.18;4.30;;;14.40;99.90;;;;;;6216460;23;20408;-86
2023/03/22 17:18:55;;;;;;;8.93;4.43;;;14.50;99.90;;;;;;6218150;23;20371;-85
2023/03/22 17:21:22;;;;;;;5.07;3.92;;;14.30;99.90;;;;;;6244884;23;20431;-86
2023/03/22 17:23:51;;;;;;;8.02;4.72;;;14.30;99.90;;;;;;6218299;23;20344;-85
2023/03/22 17:26:26;;;;;;;8.25;4.35;;;14.20;99.90;;;;;;6218452;23;20402;-85
2023/03/22 17:28:55;;;;;;;6.80;3.92;;;14.00;99.90;;;;;;6218485;23;20380;-85